Time;durP1;ratioP1;P1;durP2;ratioP2;P2;SDS_P1;SDS_P2;PMS_P1;PMS_P2;Temp;Humidity;BMP_temperature;BMP_pressure;BME280_temperature;BME280_humidity;BME280_pressure;Samples;Min_cycle;Max_cycle;Signal;HPM_P1;HPM_P2
2021/04/01 00:01:33;;;;;;;14.97;8.00;;;13.30;84.30;;;;;;5023854;28;20482;-82
2021/04/01 00:04:00;;;;;;;16.80;8.83;;;13.20;85.00;;;;;;5022274;28;20506;-83
2021/04/01 00:06:29;;;;;;;16.83;8.47;;;13.10;85.70;;;;;;5015942;28;20480;-84
2021/04/01 00:08:56;;;;;;;11.30;7.43;;;13.10;85.90;;;;;;5021734;28;20491;-80
2021/04/01 00:11:23;;;;;;;10.57;8.07;;;13.00;86.30;;;;;;5008873;28;20477;-82
2021/04/01 00:13:50;;;;;;;12.30;8.50;;;13.00;86.40;;;;;;5020797;28;20566;-85
2021/04/01 00:16:19;;;;;;;10.27;8.90;;;12.90;86.50;;;;;;5014984;28;20566;-83
2021/04/01 00:18:47;;;;;;;10.60;8.77;;;12.90;86.50;;;;;;5016735;28;20495;-79
2021/04/01 00:21:14;;;;;;;13.80;8.70;;;12.80;87.10;;;;;;5020206;28;20564;-84
2021/04/01 00:23:42;;;;;;;14.80;9.07;;;12.70;87.20;;;;;;5018947;28;20482;-82
2021/04/01 00:26:09;;;;;;;13.00;9.23;;;12.60;87.40;;;;;;5018948;28;20603;-84
2021/04/01 00:28:36;;;;;;;21.67;9.00;;;12.60;88.20;;;;;;5026717;28;20995;-82
2021/04/01 00:31:03;;;;;;;13.43;9.00;;;12.50;87.90;;;;;;5018048;28;20482;-83
2021/04/01 00:33:30;;;;;;;13.60;8.47;;;12.50;88.50;;;;;;5030601;28;21083;-81
2021/04/01 00:35:57;;;;;;;12.07;9.10;;;12.50;87.90;;;;;;5026333;28;20483;-84
2021/04/01 00:38:24;;;;;;;12.00;8.40;;;12.50;88.40;;;;;;5025860;28;20476;-84
2021/04/01 00:40:52;;;;;;;13.23;8.33;;;12.50;88.30;;;;;;5025107;28;21016;-84
2021/04/01 00:43:20;;;;;;;9.07;8.03;;;12.50;88.40;;;;;;5020823;28;20557;-84
2021/04/01 00:45:47;;;;;;;12.27;8.37;;;12.50;88.20;;;;;;5016297;28;20531;-84
2021/04/01 00:48:15;;;;;;;13.03;8.83;;;12.50;88.20;;;;;;5020217;28;20479;-84
2021/04/01 00:50:42;;;;;;;14.70;8.10;;;12.50;88.00;;;;;;5020138;28;22041;-85
2021/04/01 00:53:09;;;;;;;12.40;9.10;;;12.40;88.60;;;;;;5009934;28;20530;-84
2021/04/01 00:55:36;;;;;;;10.70;7.50;;;12.40;88.20;;;;;;5024487;28;20480;-85
2021/04/01 00:58:05;;;;;;;13.00;8.20;;;12.30;88.50;;;;;;5016540;28;20577;-84
2021/04/01 01:00:35;;;;;;;11.93;8.53;;;12.20;89.50;;;;;;5011403;28;20478;-85
2021/04/01 01:03:02;;;;;;;12.73;9.17;;;12.10;90.20;;;;;;5019286;28;20478;-86
2021/04/01 01:05:33;;;;;;;14.60;8.97;;;12.00;90.90;;;;;;5020752;28;20453;-84
2021/04/01 01:08:01;;;;;;;14.43;9.67;;;11.80;91.20;;;;;;5017650;28;20471;-84
2021/04/01 01:10:30;;;;;;;10.40;8.83;;;11.70;91.30;;;;;;5019394;28;20481;-86
2021/04/01 01:12:58;;;;;;;10.33;8.13;;;11.70;91.90;;;;;;5020056;28;20480;-85
2021/04/01 01:15:27;;;;;;;10.50;8.30;;;11.60;91.50;;;;;;5007949;28;20477;-86
2021/04/01 01:17:55;;;;;;;15.37;9.23;;;11.60;92.80;;;;;;5024311;28;20472;-85
2021/04/01 01:20:25;;;;;;;18.13;8.63;;;11.50;92.30;;;;;;5014881;28;20496;-85
2021/04/01 01:23:13;;;;;;;11.90;8.73;;;11.50;92.50;;;;;;5014872;28;20502;-88
2021/04/01 01:25:41;;;;;;;14.80;9.10;;;11.50;92.50;;;;;;5009413;28;20478;-85
2021/04/01 01:28:09;;;;;;;12.10;9.23;;;11.40;92.80;;;;;;5022658;28;20555;-86
2021/04/01 01:30:36;;;;;;;17.43;9.50;;;11.40;93.10;;;;;;5017907;28;20481;-85
2021/04/01 01:33:06;;;;;;;15.50;9.23;;;11.40;93.20;;;;;;5033893;28;20489;-84
2021/04/01 01:35:35;;;;;;;11.07;8.90;;;11.40;92.40;;;;;;5019786;28;20487;-86
2021/04/01 01:38:05;;;;;;;14.00;9.27;;;11.40;93.00;;;;;;5026039;28;20459;-86
2021/04/01 01:40:32;;;;;;;20.73;9.00;;;11.30;93.70;;;;;;5021927;28;20486;-86
2021/04/01 01:43:02;;;;;;;15.13;10.13;;;11.20;94.20;;;;;;5020088;28;20472;-85
2021/04/01 01:45:30;;;;;;;8.60;7.70;;;11.10;94.20;;;;;;5017398;28;20499;-85
2021/04/01 01:47:58;;;;;;;13.50;9.73;;;11.00;94.70;;;;;;5020027;28;20486;-86
2021/04/01 01:50:27;;;;;;;15.10;9.13;;;11.00;95.00;;;;;;5012505;28;20477;-85
2021/04/01 01:52:54;;;;;;;14.50;9.07;;;10.90;95.60;;;;;;5015651;28;20500;-84
2021/04/01 01:55:22;;;;;;;12.10;9.00;;;10.90;95.80;;;;;;5013924;28;20486;-86
2021/04/01 01:57:49;;;;;;;15.03;9.77;;;10.80;96.10;;;;;;5018256;28;20477;-84
2021/04/01 02:00:20;;;;;;;10.23;8.53;;;10.80;95.90;;;;;;5015263;28;20912;-86
2021/04/01 02:02:51;;;;;;;11.87;8.63;;;10.70;95.60;;;;;;5031237;28;20580;-84
2021/04/01 02:05:20;;;;;;;13.07;9.03;;;10.70;95.90;;;;;;5031280;28;20483;-85
2021/04/01 02:07:47;;;;;;;15.63;10.20;;;10.70;95.90;;;;;;5027610;28;20487;-85
2021/04/01 02:10:16;;;;;;;13.43;10.40;;;10.60;96.00;;;;;;5029632;28;20522;-84
2021/04/01 02:12:43;;;;;;;10.23;8.83;;;10.60;96.50;;;;;;5027185;28;21053;-86
2021/04/01 02:15:13;;;;;;;18.43;10.13;;;10.50;96.40;;;;;;5027900;28;20457;-85
2021/04/01 02:17:41;;;;;;;16.10;9.87;;;10.40;96.80;;;;;;5003086;28;20483;-84
2021/04/01 02:20:09;;;;;;;10.57;9.47;;;10.30;96.70;;;;;;5025846;28;20476;-85
2021/04/01 02:22:37;;;;;;;18.57;10.10;;;10.30;97.00;;;;;;5022711;28;20544;-85
2021/04/01 02:25:05;;;;;;;13.20;10.37;;;10.30;97.70;;;;;;5023714;28;20487;-86
2021/04/01 02:27:33;;;;;;;14.50;9.30;;;10.30;97.40;;;;;;5019692;28;20465;-86
2021/04/01 02:30:00;;;;;;;15.30;9.17;;;10.30;97.40;;;;;;5018364;28;21370;-86
2021/04/01 02:32:27;;;;;;;11.83;9.20;;;10.30;97.10;;;;;;5016808;28;21093;-87
2021/04/01 02:34:55;;;;;;;15.40;9.20;;;10.20;97.50;;;;;;5016826;28;20555;-85
2021/04/01 02:37:22;;;;;;;13.20;9.90;;;10.10;97.90;;;;;;5016998;28;20477;-86
2021/04/01 02:39:49;;;;;;;16.77;9.70;;;10.00;97.90;;;;;;5022669;28;20487;-84
2021/04/01 02:42:16;;;;;;;13.67;10.20;;;9.90;98.30;;;;;;5021529;28;20484;-84
2021/04/01 02:44:46;;;;;;;12.70;9.50;;;9.90;98.50;;;;;;5016661;28;20462;-85
2021/04/01 02:47:13;;;;;;;10.90;8.83;;;9.80;98.30;;;;;;5023649;28;20477;-83
2021/04/01 02:49:40;;;;;;;10.80;8.80;;;9.90;98.50;;;;;;5023883;28;20999;-84
2021/04/01 02:52:08;;;;;;;11.87;9.80;;;9.90;99.20;;;;;;5025125;28;20971;-84
2021/04/01 02:54:35;;;;;;;22.63;10.13;;;9.80;99.70;;;;;;5017698;28;20558;-85
2021/04/01 02:57:13;;;;;;;12.93;9.83;;;9.80;99.80;;;;;;5012903;28;20460;-84
2021/04/01 02:59:40;;;;;;;14.30;10.43;;;9.80;99.80;;;;;;5009791;28;20478;-85
2021/04/01 03:02:08;;;;;;;17.03;10.97;;;9.80;99.80;;;;;;5012186;28;20476;-84
2021/04/01 03:04:35;;;;;;;20.60;11.37;;;9.70;99.80;;;;;;5005521;28;20472;-84
2021/04/01 03:07:03;;;;;;;16.40;9.53;;;9.60;99.80;;;;;;5005577;28;20496;-84
2021/04/01 03:09:31;;;;;;;15.10;10.80;;;9.50;99.80;;;;;;5009763;28;20551;-84
2021/04/01 03:11:58;;;;;;;14.90;10.47;;;9.40;99.80;;;;;;5008118;28;20484;-84
2021/04/01 03:14:25;;;;;;;14.33;9.40;;;9.40;99.80;;;;;;5016305;28;20489;-84
2021/04/01 03:16:52;;;;;;;15.40;10.77;;;9.40;99.80;;;;;;5020275;28;20464;-86
2021/04/01 03:19:20;;;;;;;15.87;9.20;;;9.30;99.80;;;;;;5019046;28;20496;-84
2021/04/01 03:21:47;;;;;;;12.43;9.57;;;9.30;99.80;;;;;;5023411;28;20480;-86
2021/04/01 03:24:14;;;;;;;12.37;10.07;;;9.30;99.80;;;;;;5023149;28;20480;-85
2021/04/01 03:26:42;;;;;;;14.87;9.70;;;9.30;99.80;;;;;;5011693;28;20480;-85
2021/04/01 03:29:09;;;;;;;14.37;9.63;;;9.30;99.80;;;;;;5008823;28;20483;-86
2021/04/01 03:31:37;;;;;;;17.03;9.97;;;9.30;99.80;;;;;;5019281;28;20559;-85
2021/04/01 03:34:04;;;;;;;14.73;11.00;;;9.30;99.80;;;;;;5018003;28;20562;-84
2021/04/01 03:36:31;;;;;;;17.13;10.97;;;9.30;99.80;;;;;;5011502;28;21015;-85
2021/04/01 03:38:58;;;;;;;12.90;10.10;;;9.30;99.80;;;;;;5017907;28;21002;-84
2021/04/01 03:41:25;;;;;;;14.60;11.07;;;9.40;99.80;;;;;;5016466;28;20547;-86
2021/04/01 03:43:54;;;;;;;16.40;11.20;;;9.40;99.80;;;;;;5015431;28;20473;-84
2021/04/01 03:46:21;;;;;;;21.20;10.60;;;9.30;99.80;;;;;;5019465;28;20479;-86
2021/04/01 03:48:48;;;;;;;14.70;10.77;;;9.30;99.80;;;;;;5020597;28;20924;-84
2021/04/01 03:51:15;;;;;;;20.47;11.00;;;9.30;99.80;;;;;;5019434;28;21170;-84
2021/04/01 03:53:42;;;;;;;18.07;11.10;;;9.20;99.80;;;;;;5023001;28;21036;-84
2021/04/01 03:56:09;;;;;;;23.17;11.43;;;9.10;99.80;;;;;;5017743;28;21006;-84
2021/04/01 03:58:49;;;;;;;13.70;10.70;;;9.00;99.80;;;;;;5013842;28;20492;-84
2021/04/01 04:04:28;;;;;;;15.30;10.23;;;9.00;99.80;;;;;;4978469;28;21030;-85
2021/04/01 04:07:16;;;;;;;15.53;9.93;;;8.90;99.80;;;;;;4963882;28;20484;-84
2021/04/01 04:09:57;;;;;;;18.97;10.70;;;8.90;99.80;;;;;;4987781;28;20992;-84
2021/04/01 04:12:32;;;;;;;18.47;10.43;;;8.90;99.80;;;;;;5020882;28;20942;-86
2021/04/01 04:15:05;;;;;;;13.57;9.20;;;8.90;99.80;;;;;;5012114;28;20475;-84
2021/04/01 04:17:33;;;;;;;12.77;9.70;;;8.90;99.80;;;;;;5011050;28;20875;-85
2021/04/01 04:20:00;;;;;;;13.50;10.30;;;8.90;99.80;;;;;;5019823;28;20473;-84
2021/04/01 04:22:27;;;;;;;12.53;9.67;;;9.00;99.80;;;;;;5002067;28;20476;-84
2021/04/01 04:24:55;;;;;;;11.13;8.90;;;9.00;99.80;;;;;;5011559;28;20482;-84
2021/04/01 04:30:11;;;;;;;13.20;10.00;;;9.00;99.80;;;;;;5002914;28;20471;-84
2021/04/01 04:32:39;;;;;;;14.30;10.23;;;9.10;99.80;;;;;;5021577;28;20476;-85
2021/04/01 04:35:07;;;;;;;15.33;10.50;;;9.10;99.80;;;;;;5023357;28;20797;-84
2021/04/01 04:37:34;;;;;;;12.53;9.40;;;9.00;99.80;;;;;;5012925;28;20495;-84
2021/04/01 04:40:01;;;;;;;20.90;10.90;;;9.00;99.80;;;;;;4998390;28;20460;-85
2021/04/01 04:42:28;;;;;;;16.07;10.80;;;8.80;99.80;;;;;;5024909;28;20484;-84
2021/04/01 04:44:55;;;;;;;23.90;16.30;;;8.80;99.80;;;;;;5022335;28;20480;-85
2021/04/01 04:47:22;;;;;;;21.53;11.80;;;8.70;99.80;;;;;;5005533;28;20567;-84
2021/04/01 04:49:50;;;;;;;18.70;11.60;;;8.70;99.80;;;;;;5023472;28;20471;-84
2021/04/01 04:52:18;;;;;;;26.27;12.20;;;8.60;99.80;;;;;;5020228;28;21252;-85
2021/04/01 04:54:45;;;;;;;15.30;10.53;;;8.60;99.80;;;;;;5003450;28;20876;-86
2021/04/01 04:57:17;;;;;;;13.10;9.80;;;8.50;99.80;;;;;;5010998;28;20488;-85
2021/04/01 04:59:59;;;;;;;15.00;10.20;;;8.60;99.80;;;;;;5008177;28;20472;-84
2021/04/01 05:05:12;;;;;;;16.07;9.83;;;8.60;99.80;;;;;;5021136;28;20483;-84
2021/04/01 05:07:39;;;;;;;11.13;9.20;;;8.60;99.80;;;;;;5025418;28;20510;-86
2021/04/01 05:10:09;;;;;;;12.87;9.90;;;8.60;99.80;;;;;;5015800;28;20484;-85
2021/04/01 05:12:36;;;;;;;15.13;9.60;;;8.60;99.80;;;;;;5014925;28;20483;-85
2021/04/01 05:15:03;;;;;;;21.43;10.03;;;8.60;99.80;;;;;;5012104;28;20993;-85
2021/04/01 05:17:30;;;;;;;17.07;10.70;;;8.70;99.80;;;;;;5027126;28;21134;-86
2021/04/01 05:20:00;;;;;;;17.50;11.57;;;8.60;99.80;;;;;;5015341;28;20476;-85
2021/04/01 05:22:35;;;;;;;16.60;11.10;;;8.60;99.80;;;;;;5017010;28;20488;-85
2021/04/01 05:25:06;;;;;;;15.97;10.30;;;8.60;99.80;;;;;;5015214;28;20459;-85
2021/04/01 05:27:36;;;;;;;22.07;15.03;;;8.50;99.80;;;;;;5018186;28;20477;-86
2021/04/01 05:30:05;;;;;;;25.77;15.33;;;8.60;99.80;;;;;;5017569;28;20533;-86
2021/04/01 05:32:37;;;;;;;15.70;11.87;;;8.60;99.80;;;;;;5026444;28;20564;-85
2021/04/01 05:35:07;;;;;;;32.07;22.63;;;8.70;99.80;;;;;;5019354;28;21173;-84
2021/04/01 05:37:37;;;;;;;16.03;12.60;;;8.70;99.80;;;;;;5027926;28;20464;-84
2021/04/01 05:40:06;;;;;;;19.70;11.67;;;8.70;99.80;;;;;;5014793;28;20999;-85
2021/04/01 05:42:37;;;;;;;13.40;10.23;;;8.80;99.80;;;;;;5019489;28;20476;-85
2021/04/01 05:45:11;;;;;;;15.87;10.00;;;8.80;99.80;;;;;;5017924;28;20499;-91
2021/04/01 05:47:44;;;;;;;20.20;9.80;;;8.90;99.80;;;;;;5025891;28;20476;-91
2021/04/01 05:50:21;;;;;;;30.87;11.37;;;9.00;99.80;;;;;;5026605;28;20555;-91
2021/04/01 06:01:46;;;;;;;14.43;10.60;;;9.30;99.80;;;;;;5015315;28;20552;-90
2021/04/01 06:04:26;;;;;;;12.80;9.50;;;9.30;99.80;;;;;;5007470;28;21142;-91
2021/04/01 06:07:00;;;;;;;15.90;10.83;;;9.40;99.80;;;;;;5024612;28;21027;-91
2021/04/01 06:09:35;;;;;;;19.70;10.80;;;9.50;99.80;;;;;;5006351;28;21056;-91
2021/04/01 06:12:03;;;;;;;14.87;10.23;;;9.50;99.80;;;;;;5015324;28;20503;-91
2021/04/01 06:14:55;;;;;;;17.37;10.43;;;9.60;99.80;;;;;;5008115;28;20560;-91
2021/04/01 06:17:25;;;;;;;18.63;11.10;;;9.60;99.80;;;;;;5020960;28;20483;-91
2021/04/01 06:19:56;;;;;;;20.50;11.53;;;9.70;99.80;;;;;;5023259;28;20586;-91
2021/04/01 06:22:24;;;;;;;16.87;10.77;;;9.70;99.80;;;;;;5018240;28;20477;-91
2021/04/01 06:24:53;;;;;;;17.93;11.20;;;9.60;99.80;;;;;;5017444;28;20484;-90
2021/04/01 06:27:28;;;;;;;20.73;11.10;;;9.60;99.80;;;;;;5014394;28;20472;-91
2021/04/01 06:30:22;;;;;;;19.50;10.73;;;9.60;99.80;;;;;;5015884;28;20993;-91
2021/04/01 06:33:00;;;;;;;17.43;10.90;;;9.70;99.80;;;;;;5016082;28;20475;-91
2021/04/01 06:35:30;;;;;;;18.87;10.50;;;9.70;99.80;;;;;;5026104;28;20469;-91
2021/04/01 06:38:24;;;;;;;17.63;11.50;;;9.80;99.80;;;;;;5004382;28;20480;-90
2021/04/01 06:40:55;;;;;;;16.50;11.07;;;9.90;99.80;;;;;;4992427;28;20468;-91
2021/04/01 06:43:56;;;;;;;19.07;12.10;;;10.10;99.80;;;;;;5017814;28;20480;-91
2021/04/01 06:46:26;;;;;;;24.73;12.80;;;10.30;99.80;;;;;;5011346;28;20559;-91
2021/04/01 06:49:25;;;;;;;15.17;11.20;;;10.50;99.80;;;;;;5025412;28;21197;-91
2021/04/01 06:52:00;;;;;;;25.33;11.47;;;10.60;99.80;;;;;;5021293;28;21210;-91
2021/04/01 06:54:33;;;;;;;13.80;9.60;;;10.90;99.80;;;;;;5008143;28;20476;-91
2021/04/01 06:57:17;;;;;;;21.87;11.83;;;11.00;99.80;;;;;;5014355;28;20566;-91
2021/04/01 06:59:59;;;;;;;16.80;10.70;;;11.10;99.80;;;;;;5006809;28;20525;-91
2021/04/01 07:02:38;;;;;;;23.23;11.40;;;11.10;99.80;;;;;;5026339;28;20468;-90
2021/04/01 07:05:18;;;;;;;17.03;11.50;;;11.00;99.80;;;;;;5004918;28;20504;-90
2021/04/01 07:07:54;;;;;;;17.10;11.60;;;11.00;99.80;;;;;;5024788;28;20488;-90
2021/04/01 07:10:33;;;;;;;17.00;10.93;;;11.20;99.80;;;;;;5012190;28;21031;-91
2021/04/01 07:13:07;;;;;;;17.00;11.20;;;11.30;99.80;;;;;;5021738;28;20479;-90
2021/04/01 07:15:39;;;;;;;14.90;10.00;;;11.50;99.80;;;;;;5019601;28;20943;-91
2021/04/01 07:18:22;;;;;;;25.50;11.17;;;11.70;99.80;;;;;;5026861;28;21230;-91
2021/04/01 07:21:06;;;;;;;15.10;9.83;;;12.00;99.30;;;;;;5018100;28;20467;-91
2021/04/01 07:46:31;;;;;;;11.70;9.70;;;13.30;96.30;;;;;;5013281;28;21018;-90
2021/04/01 07:49:04;;;;;;;15.83;11.40;;;13.20;95.50;;;;;;5022821;28;20465;-91
2021/04/01 07:51:52;;;;;;;22.13;11.17;;;13.20;95.90;;;;;;5023076;28;20517;-89
2021/04/01 07:54:26;;;;;;;13.30;9.97;;;13.10;96.40;;;;;;5022439;28;20493;-90
2021/04/01 07:57:06;;;;;;;14.87;10.90;;;13.20;96.30;;;;;;5020919;28;22517;-91
2021/04/01 07:59:38;;;;;;;14.53;11.10;;;13.30;96.10;;;;;;5009426;28;20550;-90
2021/04/01 08:02:23;;;;;;;19.97;11.77;;;13.30;96.10;;;;;;5032298;28;20559;-91
2021/04/01 08:04:52;;;;;;;21.13;11.10;;;13.50;95.80;;;;;;5014698;28;20476;-90
2021/04/01 08:07:23;;;;;;;17.00;9.93;;;13.60;95.20;;;;;;5014261;28;20566;-90
2021/04/01 08:09:57;;;;;;;20.33;11.80;;;13.80;94.80;;;;;;5021532;28;20476;-90
2021/04/01 08:12:27;;;;;;;19.40;10.67;;;14.00;94.60;;;;;;5004647;28;20481;-91
2021/04/01 08:14:59;;;;;;;18.90;11.87;;;14.10;93.80;;;;;;5026040;28;20554;-90
2021/04/01 08:17:33;;;;;;;23.57;11.63;;;14.20;93.50;;;;;;5010288;28;20485;-83
2021/04/01 08:20:01;;;;;;;15.30;11.20;;;14.20;93.30;;;;;;5026045;28;20477;-90
2021/04/01 08:23:01;;;;;;;14.00;10.27;;;14.10;93.60;;;;;;5006009;28;20487;-90
2021/04/01 08:25:55;;;;;;;18.63;10.70;;;14.10;93.60;;;;;;5012569;28;20478;-91
2021/04/01 08:28:49;;;;;;;19.10;11.90;;;14.00;93.40;;;;;;5016851;28;20462;-91
2021/04/01 08:34:41;;;;;;;12.77;10.63;;;14.10;93.00;;;;;;5026840;28;20958;-90
2021/04/01 08:37:33;;;;;;;15.73;11.43;;;14.20;92.60;;;;;;5032114;28;20474;-91
2021/04/01 08:40:20;;;;;;;28.63;11.90;;;14.50;91.90;;;;;;5015898;28;20464;-90
2021/04/01 08:43:38;;;;;;;21.50;13.97;;;14.70;91.20;;;;;;4999803;28;20477;-91
2021/04/01 08:46:47;;;;;;;19.63;12.33;;;15.10;89.50;;;;;;5031595;28;21021;-91
2021/04/01 08:49:37;;;;;;;16.23;12.50;;;15.60;88.00;;;;;;5016431;28;20476;-91
2021/04/01 08:52:37;;;;;;;17.23;12.30;;;15.80;86.40;;;;;;5015798;28;20471;-90
2021/04/01 08:55:07;;;;;;;17.17;12.70;;;16.00;84.90;;;;;;5011355;28;20491;-92
2021/04/01 08:57:50;;;;;;;23.27;13.33;;;16.20;85.80;;;;;;5005197;28;20591;-91
2021/04/01 09:00:18;;;;;;;21.43;12.40;;;16.50;85.30;;;;;;5027469;28;20487;-87
2021/04/01 09:02:50;;;;;;;14.57;11.90;;;16.50;84.30;;;;;;5023730;28;20484;-88
2021/04/01 09:05:20;;;;;;;15.13;12.80;;;16.70;85.10;;;;;;5013492;28;20479;-87
2021/04/01 09:07:51;;;;;;;25.60;13.00;;;16.70;85.10;;;;;;5038425;28;20468;-87
2021/04/01 09:10:21;;;;;;;14.40;11.57;;;16.70;85.80;;;;;;5020308;28;20478;-87
2021/04/01 09:12:52;;;;;;;22.57;12.10;;;16.70;86.00;;;;;;4992905;28;20480;-87
2021/04/01 09:15:26;;;;;;;18.67;13.80;;;16.60;86.50;;;;;;5010311;28;20542;-87
2021/04/01 09:17:56;;;;;;;21.13;13.20;;;16.60;88.00;;;;;;5032372;28;21055;-86
2021/04/01 09:20:25;;;;;;;18.77;13.80;;;16.60;87.70;;;;;;5013726;28;20507;-86
2021/04/01 09:22:56;;;;;;;17.93;13.00;;;16.70;88.90;;;;;;5018103;28;20476;-87
2021/04/01 09:25:35;;;;;;;19.53;15.03;;;16.90;87.00;;;;;;4995629;28;21228;-88
2021/04/01 09:28:05;;;;;;;18.20;14.20;;;16.90;87.10;;;;;;5011516;28;20472;-87
2021/04/01 09:30:32;;;;;;;25.27;14.77;;;17.00;87.90;;;;;;5008425;28;20604;-87
2021/04/01 09:33:06;;;;;;;26.80;13.70;;;17.10;88.20;;;;;;5033012;28;21043;-88
2021/04/01 09:35:34;;;;;;;19.73;14.27;;;17.10;88.00;;;;;;5024121;28;20533;-87
2021/04/01 09:38:06;;;;;;;22.93;15.10;;;17.40;86.80;;;;;;5023744;28;21024;-88
2021/04/01 09:40:35;;;;;;;21.20;14.50;;;17.40;86.70;;;;;;5023973;28;20556;-87
2021/04/01 09:43:10;;;;;;;21.13;14.40;;;17.50;86.50;;;;;;5011637;28;20813;-88
2021/04/01 09:45:37;;;;;;;20.13;14.67;;;17.70;84.80;;;;;;5007531;28;20567;-89
2021/04/01 09:48:09;;;;;;;32.13;15.77;;;17.90;85.50;;;;;;5027601;28;20479;-88
2021/04/01 09:50:38;;;;;;;24.50;15.60;;;18.00;83.00;;;;;;5024766;28;20527;-88
2021/04/01 09:53:12;;;;;;;23.47;14.00;;;18.10;82.30;;;;;;5003844;28;20503;-88
2021/04/01 09:55:41;;;;;;;21.93;15.70;;;18.20;81.40;;;;;;5019767;28;20563;-88
2021/04/01 09:58:21;;;;;;;20.80;15.00;;;18.20;82.30;;;;;;5011069;28;20476;-89
2021/04/01 10:03:36;;;;;;;21.07;14.27;;;18.60;82.10;;;;;;5000906;28;20465;-88
2021/04/01 10:06:04;;;;;;;21.90;14.80;;;18.70;81.00;;;;;;4996355;28;20494;-89
2021/04/01 10:08:35;;;;;;;18.67;14.50;;;18.90;80.90;;;;;;5025891;28;21072;-88
2021/04/01 10:11:21;;;;;;;23.10;15.40;;;19.20;80.00;;;;;;5003909;28;22074;-89
2021/04/01 10:13:48;;;;;;;25.97;15.87;;;19.50;80.00;;;;;;4996228;28;20487;-89
2021/04/01 10:16:22;;;;;;;21.10;15.10;;;19.80;78.10;;;;;;5012438;28;20566;-88
2021/04/01 10:18:50;;;;;;;27.53;16.27;;;20.00;79.30;;;;;;5021482;28;21203;-89
2021/04/01 10:21:18;;;;;;;21.67;16.53;;;20.20;76.70;;;;;;5012583;28;20926;-88
2021/04/01 10:23:47;;;;;;;20.53;14.60;;;20.40;76.20;;;;;;5001449;28;20471;-89
2021/04/01 10:26:16;;;;;;;20.00;14.20;;;20.40;77.80;;;;;;5003064;28;20486;-88
2021/04/01 10:28:58;;;;;;;21.20;16.67;;;20.60;78.40;;;;;;4991517;28;20480;-88
2021/04/01 10:31:26;;;;;;;23.30;16.23;;;20.80;76.30;;;;;;5021397;28;20506;-88
2021/04/01 10:34:05;;;;;;;23.80;15.20;;;20.80;75.70;;;;;;5009497;28;20460;-88
2021/04/01 10:36:33;;;;;;;21.73;15.53;;;20.80;75.70;;;;;;5004102;28;20529;-88
2021/04/01 10:39:09;;;;;;;25.63;15.57;;;21.00;75.60;;;;;;5024484;28;20480;-88
2021/04/01 10:41:45;;;;;;;18.20;14.53;;;21.10;74.90;;;;;;5025200;28;20546;-88
2021/04/01 10:44:13;;;;;;;22.83;14.73;;;21.40;75.80;;;;;;5006460;28;20982;-88
2021/04/01 10:46:46;;;;;;;22.10;15.40;;;21.60;74.30;;;;;;5020675;28;20508;-88
2021/04/01 10:49:14;;;;;;;22.00;14.57;;;21.80;75.00;;;;;;5020407;28;21019;-89
2021/04/01 10:51:49;;;;;;;32.27;17.40;;;22.10;73.80;;;;;;5023954;28;20570;-88
2021/04/01 10:54:24;;;;;;;25.07;16.17;;;22.20;72.10;;;;;;5011313;28;20559;-89
2021/04/01 10:56:54;;;;;;;33.10;16.67;;;22.40;70.80;;;;;;5017588;28;20470;-89
2021/04/01 10:59:36;;;;;;;28.97;15.63;;;22.70;71.50;;;;;;5007798;28;21086;-89
2021/04/01 11:02:14;;;;;;;25.23;16.53;;;23.00;70.50;;;;;;5020097;28;20962;-90
2021/04/01 11:04:44;;;;;;;28.63;17.07;;;23.30;68.50;;;;;;5014999;28;20565;-89
2021/04/01 11:07:11;;;;;;;30.00;17.30;;;23.60;69.20;;;;;;5014283;28;20534;-89
2021/04/01 11:09:45;;;;;;;30.00;17.57;;;23.80;67.00;;;;;;5008140;28;20885;-89
2021/04/01 11:12:17;;;;;;;26.20;16.43;;;24.10;66.70;;;;;;5017168;28;20482;-89
2021/04/01 11:14:47;;;;;;;29.27;17.00;;;24.40;66.90;;;;;;5015240;28;21052;-89
2021/04/01 11:17:16;;;;;;;34.77;17.87;;;24.90;65.60;;;;;;5012265;28;20567;-89
2021/04/01 11:19:45;;;;;;;29.03;16.23;;;25.30;64.80;;;;;;5023872;28;20857;-88
2021/04/01 11:22:13;;;;;;;30.03;16.63;;;25.60;62.60;;;;;;5021957;28;20571;-89
2021/04/01 11:24:42;;;;;;;34.67;17.87;;;26.60;60.30;;;;;;5023203;28;20544;-88
2021/04/01 11:27:10;;;;;;;31.43;16.70;;;26.60;60.30;;;;;;5009866;28;20595;-89
2021/04/01 11:29:38;;;;;;;34.90;17.43;;;26.80;61.50;;;;;;5000302;28;20830;-89
2021/04/01 11:32:20;;;;;;;29.33;16.57;;;26.80;60.70;;;;;;5037983;28;20477;-89
2021/04/01 11:34:49;;;;;;;32.40;17.67;;;27.10;60.00;;;;;;5015834;28;20468;-89
2021/04/01 11:37:21;;;;;;;32.57;16.70;;;27.10;59.80;;;;;;5007599;28;20602;-89
2021/04/01 11:39:50;;;;;;;36.63;19.67;;;27.10;61.60;;;;;;4987250;28;22088;-89
2021/04/01 11:42:18;;;;;;;31.93;18.80;;;26.80;58.90;;;;;;4994214;28;20591;-89
2021/04/01 11:44:46;;;;;;;36.77;16.33;;;28.00;59.80;;;;;;4997454;28;20544;-89
2021/04/01 11:47:15;;;;;;;36.00;18.77;;;28.10;59.70;;;;;;5009409;28;20497;-89
2021/04/01 11:49:43;;;;;;;35.00;16.50;;;30.80;53.70;;;;;;4999042;28;20473;-89
2021/04/01 11:52:11;;;;;;;32.20;17.00;;;33.10;49.80;;;;;;4999079;28;20477;-89
2021/04/01 11:54:39;;;;;;;31.50;17.93;;;36.00;45.40;;;;;;5005872;28;21033;-89
2021/04/01 11:57:22;;;;;;;33.77;17.63;;;36.80;43.10;;;;;;4998767;28;20477;-89
2021/04/01 12:00:00;;;;;;;33.53;16.20;;;37.40;40.80;;;;;;5021389;28;20857;-90
2021/04/01 12:02:28;;;;;;;40.10;18.10;;;37.80;39.30;;;;;;5011379;28;20471;-90
2021/04/01 12:04:58;;;;;;;32.63;16.00;;;38.00;39.70;;;;;;5020082;28;20635;-90
2021/04/01 12:07:28;;;;;;;36.60;17.83;;;38.00;38.50;;;;;;5009273;28;20551;-88
2021/04/01 12:09:55;;;;;;;35.30;16.97;;;38.40;38.30;;;;;;5006567;28;21006;-87
2021/04/01 12:12:33;;;;;;;33.53;16.20;;;38.90;37.70;;;;;;5000031;28;20482;-87
2021/04/01 12:15:01;;;;;;;28.40;16.63;;;39.30;35.30;;;;;;5007000;28;20464;-87
2021/04/01 12:17:38;;;;;;;26.73;16.53;;;39.30;34.50;;;;;;5022803;28;20480;-88
2021/04/01 12:20:11;;;;;;;26.70;15.70;;;39.40;36.30;;;;;;5008084;28;21568;-88
2021/04/01 12:22:40;;;;;;;26.33;14.97;;;39.30;35.30;;;;;;5020342;28;20479;-87
2021/04/01 12:25:11;;;;;;;23.40;14.70;;;39.20;34.80;;;;;;5009201;28;20871;-87
2021/04/01 12:27:48;;;;;;;26.20;15.40;;;39.30;34.30;;;;;;5008256;28;20472;-88
2021/04/01 12:30:27;;;;;;;24.80;14.50;;;39.60;34.80;;;;;;4993818;28;20457;-88
2021/04/01 12:33:06;;;;;;;26.07;13.60;;;40.00;34.40;;;;;;5013750;28;20480;-87
2021/04/01 12:35:33;;;;;;;27.73;14.13;;;40.00;33.00;;;;;;5022261;28;20544;-87
2021/04/01 12:38:03;;;;;;;26.40;15.57;;;40.10;32.70;;;;;;5000327;28;20481;-87
2021/04/01 12:40:37;;;;;;;28.43;14.73;;;39.90;34.20;;;;;;5017718;28;20470;-87
2021/04/01 12:43:08;;;;;;;24.10;14.37;;;40.10;33.90;;;;;;5008513;28;20459;-87
2021/04/01 12:45:37;;;;;;;25.50;13.20;;;40.60;33.60;;;;;;5021634;28;20997;-87
2021/04/01 12:48:10;;;;;;;22.40;13.53;;;40.70;34.10;;;;;;5029839;28;20551;-87
2021/04/01 12:50:39;;;;;;;20.70;13.57;;;41.10;33.60;;;;;;5007780;28;20480;-88
2021/04/01 12:53:07;;;;;;;26.30;14.23;;;41.40;32.30;;;;;;4994090;28;20848;-88
2021/04/01 12:55:40;;;;;;;27.30;13.87;;;41.70;32.20;;;;;;5019511;28;20927;-87
2021/04/01 12:58:32;;;;;;;21.10;14.17;;;41.90;31.60;;;;;;5009676;28;20939;-88
2021/04/01 13:01:10;;;;;;;20.20;12.40;;;41.70;31.60;;;;;;5017100;28;20501;-88
2021/04/01 13:03:37;;;;;;;26.10;12.80;;;;;;;;;;5024218;28;20575;-88
2021/04/01 13:06:06;;;;;;;21.60;12.40;;;40.60;32.20;;;;;;5031698;28;20467;-83
2021/04/01 13:11:15;;;;;;;22.80;12.53;;;40.30;32.40;;;;;;5015681;28;20463;-87
2021/04/01 13:13:44;;;;;;;24.80;11.57;;;40.70;31.90;;;;;;5006313;28;20471;-88
2021/04/01 13:16:11;;;;;;;19.90;12.33;;;40.60;31.50;;;;;;5035098;28;20479;-87
2021/04/01 13:18:38;;;;;;;18.50;11.13;;;40.30;31.80;;;;;;5025917;28;20552;-88
2021/04/01 13:21:18;;;;;;;18.60;11.00;;;40.10;32.30;;;;;;5009872;28;20550;-88
2021/04/01 13:23:48;;;;;;;16.40;11.23;;;;;;;;;;5000570;28;20483;-87
2021/04/01 13:26:15;;;;;;;22.60;14.03;;;;;;;;;;5010711;28;20467;-88
2021/04/01 13:28:44;;;;;;;21.60;12.77;;;39.40;35.00;;;;;;5025884;28;20582;-87
2021/04/01 13:31:23;;;;;;;21.40;12.10;;;39.70;33.90;;;;;;5008328;28;20452;-87
2021/04/01 13:33:54;;;;;;;19.63;10.40;;;39.70;33.70;;;;;;5024597;28;20517;-87
2021/04/01 13:36:26;;;;;;;13.73;9.60;;;39.40;33.40;;;;;;5014719;28;20530;-87
2021/04/01 13:38:54;;;;;;;14.00;7.80;;;37.70;33.60;;;;;;5003665;28;20471;-86
2021/04/01 13:41:28;;;;;;;15.50;8.07;;;36.60;34.60;;;;;;5024161;28;20571;-87
2021/04/01 13:43:57;;;;;;;13.30;6.93;;;36.40;34.30;;;;;;5009576;28;20482;-87
2021/04/01 13:46:25;;;;;;;14.27;7.53;;;36.00;34.40;;;;;;5017521;28;20842;-87